Home > Products > Valid Products > TAF

000
FTUS45 KBOU 241218 AAA
TAFDEN
TAF AMD
KDEN 241218Z 2412/2518 28008KT P6SM FEW220
     FM241400 34008KT P6SM FEW220
     FM241500 02008KT P6SM FEW220
     FM241800 07008KT P6SM FEW100 SCT220
     FM242100 12006KT P6SM FEW120 BKN200
     FM250000 15007KT P6SM FEW120 BKN200
     FM250400 21010KT P6SM FEW140 BKN200=



000
FTUS45 KBOU 241134
TAFAPA
TAF
KAPA 241134Z 2412/2512 VRB04KT P6SM FEW220
     FM241600 11008KT P6SM SCT220
     FM242300 15006KT P6SM FEW120 BKN220
     FM250300 19008KT P6SM FEW120 BKN220=



000
FTUS45 KBOU 241134
TAFBJC
TAF
KBJC 241134Z 2412/2512 VRB06KT P6SM FEW220
     FM241700 06006KT P6SM FEW100 SCT220
     FM242200 28011KT P6SM FEW110 BKN200=



000
FTUS45 KBOU 241134
TAFDEN
TAF
KDEN 241134Z 2412/2518 34010KT P6SM FEW220
     FM241500 02008KT P6SM FEW220
     FM241800 07008KT P6SM FEW100 SCT220
     FM242100 12006KT P6SM FEW120 BKN200
     FM250000 15007KT P6SM FEW120 BKN200
     FM250400 21010KT P6SM FEW140 BKN200=



000
FTUS45 KBOU 241119 AAC
TAFDEN
TAF AMD
KDEN 241119Z 2411/2512 34010KT P6SM FEW130 SCT220
     FM241500 02008KT P6SM SCT220
     FM242000 03006KT P6SM FEW100 SCT220
     FM250300 22010KT P6SM FEW140 SCT220=



000
FTUS45 KBOU 240911 AAB
TAFDEN
TAF AMD
KDEN 240911Z 2409/2512 34010KT P6SM SCT060 BKN200
     FM241100 26008KT P6SM SCT220
     FM241300 21008KT P6SM SCT220
     FM242000 03006KT P6SM FEW100 SCT220
     FM250300 22010KT P6SM FEW140 SCT220=



000
FTUS45 KBOU 240645 AAA
TAFDEN
TAF AMD
KDEN 240645Z 2407/2512 VRB06KT P6SM SCT060 BKN100
     FM240900 34006KT P6SM FEW110 SCT220
     FM241000 26008KT P6SM SCT220
     FM241200 21008KT P6SM SCT220
     FM242000 03006KT P6SM FEW100 SCT220
     FM250300 22010KT P6SM FEW140 SCT220=



000
FTUS45 KBOU 240622 AAA
TAFAPA
TAF AMD
KAPA 240622Z 2406/2506 15008KT P6SM BKN015 BKN100
     FM240730 15008KT P6SM SCT020 BKN100 BKN200
     FM240900 16008KT P6SM SCT220
     FM241200 19008KT P6SM SCT220
     FM242000 02006KT P6SM FEW100 SCT220=



000
FTUS45 KBOU 240531
TAFBJC
TAF
KBJC 240531Z 2406/2506 13007KT P6SM SCT080 BKN200
     FM240600 28008KT P6SM SCT220
     FM241100 VRB06KT P6SM SCT220
     FM242000 06006KT P6SM FEW100 SCT220=



000
FTUS45 KBOU 240531
TAFDEN
TAF
KDEN 240531Z 2406/2512 08010KT P6SM SCT050 BKN070
     FM240800 14008KT P6SM FEW110 SCT220
     FM241000 16008KT P6SM SCT220
     FM241100 21008KT P6SM SCT220
     FM242000 03006KT P6SM FEW100 SCT220
     FM250300 22010KT P6SM FEW140 SCT220=



000
FTUS45 KBOU 240531
TAFAPA
TAF
KAPA 240531Z 2406/2506 15008KT P6SM BKN020 BKN060 OVC110
     FM240620 15008KT P6SM SCT060 BKN100 BKN200
     FM240900 16008KT P6SM SCT220
     FM241200 19008KT P6SM SCT220
     FM242000 02006KT P6SM FEW100 SCT220=



000
FTUS45 KBOU 240429 AAC
TAFBJC
TAF AMD
KBJC 240429Z 2404/2424 13007KT P6SM SCT040 BKN080
      TEMPO 2404/2406 5SM -RA BR BKN040
     FM240600 28008KT P6SM SCT220
     FM241100 VRB06KT P6SM SCT220
     FM242000 06006KT P6SM FEW100 SCT220=



000
FTUS45 KBOU 240424 AAD
TAFAPA
TAF AMD
KAPA 240424Z 2404/2424 12008KT P6SM VCSH SCT021 BKN060
      TEMPO 2404/2405 -RA BKN021
     FM240500 09011KT P6SM SCT060 BKN100 BKN200
     FM240600 24008KT P6SM SCT220
     FM241100 19008KT P6SM SCT220
     FM242000 02006KT P6SM FEW100 SCT220=



000
FTUS45 KBOU 240422 AAD
TAFDEN
TAF AMD
KDEN 240422Z 2404/2506 07012KT P6SM VCTS BKN060CB BKN100
     FM240500 02015KT P6SM SCT060 BKN110
     FM240600 35008KT P6SM FEW110 SCT220
     FM241100 21008KT P6SM SCT220
     FM242000 03006KT P6SM FEW100 SCT220
     FM250300 22010KT P6SM FEW140 SCT220=



000
FTUS45 KBOU 240411 CCB
TAFDEN
TAF COR
KDEN 240411Z 2404/2506 09009KT P6SM VCSH BKN060 BKN100
     FM240500 02010KT P6SM SCT060 BKN110
     FM240600 25008KT P6SM FEW110 SCT220
     FM241100 21008KT P6SM SCT220
     FM242000 03006KT P6SM FEW100 SCT220
     FM250300 22010KT P6SM FEW140 SCT220=



000
FTUS45 KBOU 240410 AAC
TAFDEN
TAF AMD
KDEN 240410Z 2404/2506 04012KT P6SM VCSH BKN060 BKN100
     FM240500 02010KT P6SM SCT060 BKN110
     FM240600 25008KT P6SM FEW110 SCT220
     FM241100 21008KT P6SM SCT220
     FM242000 03006KT P6SM FEW100 SCT220
     FM250300 22010KT P6SM FEW140 SCT220=



000
FTUS45 KBOU 240410 CCA
TAFDEN
TAF COR
KDEN 240410Z 2404/2506 09009KT P6SM VCSH BKN060 BKN100
     FM240500 02010KT P6SM SCT060 BKN110
     FM240600 25008KT P6SM FEW110 SCT220
     FM241100 21008KT P6SM SCT220
     FM242000 03006KT P6SM FEW100 SCT220
     FM250300 22010KT P6SM FEW140 SCT220=



000
FTUS45 KBOU 240323 AAB
TAFBJC
TAF AMD
KBJC 240323Z 2403/2424 13007KT P6SM SCT050 OVC220
      TEMPO 2403/2404 5SM -RA BR BKN030
     FM240600 28008KT P6SM SCT220
     FM241100 VRB06KT P6SM SCT220
     FM242000 06006KT P6SM FEW100 SCT220=



000
FTUS45 KBOU 240323 AAC
TAFAPA
TAF AMD
KAPA 240323Z 2403/2424 08007KT P6SM VCSH SCT025 BKN040
      TEMPO 2403/2405 3SM -RA BR BKN025
     FM240500 30013KT P6SM SCT100 BKN200
     FM240600 24008KT P6SM SCT220
     FM241100 19008KT P6SM SCT220
     FM242000 02006KT P6SM FEW100 SCT220=



000
FTUS45 KBOU 240215 AAB
TAFAPA
TAF AMD
KAPA 240215Z 2402/2424 04012G25KT P6SM -SHRA SCT025 BKN050
      TEMPO 2402/2404 VRB16G35KT -TSRA BKN025CB
     FM240400 30013KT P6SM SCT100 BKN200
     FM240600 24008KT P6SM SCT220
     FM241100 19008KT P6SM SCT220
     FM242000 02006KT P6SM FEW100 SCT220=



000
FTUS45 KBOU 240215 AAB
TAFDEN
TAF AMD
KDEN 240215Z 2402/2506 08012G25KT P6SM -SHRA SCT030 BKN060
      TEMPO 2402/2404 VRB16G35KT BKN025
     FM240400 30015KT P6SM SCT100 BKN200
     FM240600 25008KT P6SM SCT220
     FM241100 21008KT P6SM SCT220
     FM242000 03006KT P6SM FEW100 SCT220
     FM250300 22010KT P6SM FEW140 SCT220=



000
FTUS45 KBOU 240052 AAA
TAFDEN
TAF AMD
KDEN 240052Z 2401/2506 04020G35KT 5SM TSRAGS BKN050CB OVC100
      TEMPO 2401/2402 VRB25G48KT
     FM240300 30015KT P6SM SCT100 BKN200
     FM240600 25008KT P6SM SCT220
     FM241100 21008KT P6SM SCT220
     FM242000 03006KT P6SM FEW100 SCT220
     FM250300 22010KT P6SM FEW140 SCT220=



000
FTUS45 KBOU 240032 AAA
TAFAPA
TAF AMD
KAPA 240032Z 2401/2424 06018G36KT P6SM VCSH SCT080 BKN140
      TEMPO 2401/2402 VRB20G45KT -TSRA BKN070CB
     FM240300 30013KT P6SM SCT100 BKN200
     FM240600 24008KT P6SM SCT220
     FM241100 19008KT P6SM SCT220
     FM242000 02006KT P6SM FEW100 SCT220=



000
FTUS45 KBOU 240009 AAA
TAFBJC
TAF AMD
KBJC 240009Z 2400/2424 04014G28KT P6SM VCSH SCT060 BKN090
      TEMPO 2400/2402 VRB20G45KT -TSRA BKN050CB
     FM240300 30015KT P6SM SCT100 BKN200
     FM240600 28008KT P6SM SCT220
     FM241100 VRB06KT P6SM SCT220
     FM242000 06006KT P6SM FEW100 SCT220=



000
FTUS45 KBOU 232339
TAFAPA
TAF
KAPA 232339Z 2400/2424 05010G25KT P6SM SCT100 BKN150
     FM240300 30013KT P6SM SCT100 BKN200
     FM240600 24008KT P6SM SCT220
     FM241100 19008KT P6SM SCT220
     FM242000 02006KT P6SM FEW100 SCT220=



000
FTUS45 KBOU 232339
TAFBJC
TAF
KBJC 232339Z 2400/2424 28012G28KT P6SM SCT080 BKN140
     FM240300 30015KT P6SM SCT100 BKN200
     FM240600 28008KT P6SM SCT220
     FM241100 VRB06KT P6SM SCT220
     FM242000 06006KT P6SM FEW100 SCT220=



000
FTUS45 KBOU 232339
TAFDEN
TAF
KDEN 232339Z 2400/2506 05015G30KT P6SM VCSH SCT070 BKN140
      TEMPO 2400/2402 VRB20G45KT -TSRA BKN070CB
     FM240300 30015KT P6SM SCT100 BKN200
     FM240600 25008KT P6SM SCT220
     FM241100 21008KT P6SM SCT220
     FM242000 03006KT P6SM FEW100 SCT220
     FM250300 22010KT P6SM FEW140 SCT220=



000
FTUS45 KBOU 232235 AAB
TAFAPA
TAF AMD
KAPA 232235Z 2323/2418 22012KT P6SM SCT100 BKN150
     FM232300 35014KT P6SM VCSH SCT070 BKN140
     FM240300 32011KT P6SM SCT140 BKN200
     FM240800 23007KT P6SM FEW200
     FM241600 19007KT P6SM FEW220=



000
FTUS45 KBOU 232235 AAB
TAFBJC
TAF AMD
KBJC 232235Z 2323/2418 28012G25KT P6SM SCT080 BKN130
     FM240100 34010KT P6SM SCT140 BKN200
     FM240500 28010KT P6SM FEW200
     FM241400 25008KT P6SM FEW220=



000
FTUS45 KBOU 232235 AAE
TAFDEN
TAF AMD
KDEN 232235Z 2323/2424 03010KT P6SM SCT090 BKN120 BKN200
      TEMPO 2322/2400 VRB20G42KT BKN080
     FM240000 35016G22KT P6SM VCSH SCT070 BKN140
     FM240200 32012KT P6SM SCT140 BKN200
     FM240800 24007KT P6SM FEW200
     FM241700 20006KT P6SM FEW220
     FM242000 16007KT P6SM SCT220=



000
FTUS45 KBOU 232227 AAD
TAFDEN
TAF AMD
KDEN 232227Z 2322/2424 03014KT P6SM SCT090 BKN120 BKN200
     FM240000 35016G22KT P6SM VCSH SCT070 BKN140
     FM240200 32012KT P6SM SCT140 BKN200
     FM240800 24007KT P6SM FEW200
     FM241700 20006KT P6SM FEW220
     FM242000 16007KT P6SM SCT220=



000
FTUS45 KBOU 232201 AAA
TAFBJC
TAF AMD
KBJC 232201Z 2322/2418 28012G25KT P6SM SCT080 BKN130
     FM240100 34010KT P6SM SCT140 BKN200
     FM240500 28010KT P6SM FEW200
     FM241400 25008KT P6SM FEW220=



000
FTUS45 KBOU 232201 AAC
TAFDEN
TAF AMD
KDEN 232201Z 2322/2424 35012KT P6SM SCT090 BKN110 BKN200
     FM232300 32012KT P6SM SCT080 BKN150
     FM240000 35016G22KT P6SM VCSH SCT070 BKN140
     FM240200 32012KT P6SM SCT140 BKN200
     FM240800 24007KT P6SM FEW200
     FM241700 20006KT P6SM FEW220
     FM242000 16007KT P6SM SCT220=



000
FTUS45 KBOU 232001 AAA
TAFAPA
TAF AMD
KAPA 232001Z 2320/2418 22012KT P6SM SCT100 BKN150
     FM232300 35014KT P6SM VCSH SCT070 BKN140
     FM240300 32011KT P6SM SCT140 BKN200
     FM240800 23007KT P6SM FEW200
     FM241600 19007KT P6SM FEW220=



000
FTUS45 KBOU 232001 AAB
TAFDEN
TAF AMD
KDEN 232001Z 2320/2424 10012KT P6SM SCT080 BKN120 BKN200
     FM232300 32012KT P6SM SCT080 BKN150
     FM240000 35016G22KT P6SM VCSH SCT070 BKN140
     FM240200 32012KT P6SM SCT140 BKN200
     FM240800 24007KT P6SM FEW200
     FM241700 20006KT P6SM FEW220
     FM242000 16007KT P6SM SCT220=



000
FTUS45 KBOU 231906 AAA
TAFDEN
TAF AMD
KDEN 231906Z 2319/2424 12010KT P6SM FEW080 SCT140 BKN200
     FM232100 32012KT P6SM SCT080 BKN150
     FM232300 35016G22KT P6SM VCSH SCT070 BKN140
     FM240200 32012KT P6SM SCT140 BKN200
     FM240800 24007KT P6SM FEW200
     FM241700 20006KT P6SM FEW220
     FM242000 16007KT P6SM SCT220=



000
FTUS45 KBOU 231738
TAFAPA
TAF
KAPA 231738Z 2318/2418 26012G18KT P6SM FEW080 SCT140 BKN220
     FM232000 32014KT P6SM SCT080 BKN140
     FM232200 35014KT P6SM VCSH SCT070 BKN140
     FM240300 32011KT P6SM SCT140 BKN200
     FM240800 23007KT P6SM FEW200
     FM241600 19007KT P6SM FEW220=



000
FTUS45 KBOU 231738
TAFDEN
TAF
KDEN 231738Z 2318/2424 31010KT P6SM FEW080 SCT140 BKN200
     FM232000 34014KT P6SM SCT080 BKN150
     FM232200 35016G22KT P6SM VCSH SCT070 BKN140
     FM240200 32012KT P6SM SCT140 BKN200
     FM240800 24007KT P6SM FEW200
     FM241700 20006KT P6SM FEW220
     FM242000 16007KT P6SM SCT220=



000
FTUS45 KBOU 231738
TAFBJC
TAF
KBJC 231738Z 2318/2418 30015G25KT P6SM SCT080 BKN140
     FM240100 34010KT P6SM SCT140 BKN200
     FM240500 28010KT P6SM FEW200
     FM241400 25008KT P6SM FEW220=



000
FTUS45 KBOU 231627 AAB
TAFDEN
TAF AMD
KDEN 231627Z 2316/2418 32013KT P6SM FEW080 SCT120 BKN200
     FM231900 34015KT P6SM SCT080 BKN150
     FM232200 35017G24KT P6SM VCSH SCT070 BKN140
     FM240200 34011KT P6SM SCT140 BKN200
     FM240800 25006KT P6SM FEW200=



000
FTUS45 KBOU 231459 AAA
TAFDEN
TAF AMD
KDEN 231459Z 2315/2418 25013KT P6SM SCT120 BKN200
     FM231600 28015KT P6SM SCT080 BKN180
     FM231900 32015KT P6SM SCT080 BKN150
     FM232200 35017G24KT P6SM VCSH SCT070 BKN140
     FM240200 34011KT P6SM SCT140 BKN200
     FM240800 25006KT P6SM FEW200=



000
FTUS45 KBOU 231415 AAB
TAFBJC
TAF AMD
KBJC 231415Z 2314/2412 26012KT P6SM FEW120 BKN180
     FM231600 29014KT P6SM FEW080 BKN150
     FM231800 30015G25KT P6SM SCT080 BKN140
     FM240100 34010KT P6SM SCT140 BKN200
     FM240600 28010KT P6SM FEW200=



000
FTUS45 KBOU 231221 AAA
TAFBJC
TAF AMD
KBJC 231221Z 2312/2412 20011KT P6SM FEW120 BKN180
     FM231300 28010KT P6SM FEW120 BKN220
     FM231500 29015KT P6SM SCT080 BKN150
     FM231800 30015G25KT P6SM SCT080 BKN140
     FM240100 34010KT P6SM SCT140 BKN200
     FM240600 28010KT P6SM FEW200=



000
FTUS45 KBOU 231134
TAFDEN
TAF
KDEN 231134Z 2312/2418 18014G23KT P6SM SCT220
     FM231300 21011KT P6SM BKN220
     FM231500 24013KT P6SM SCT120 BKN200
     FM231600 28015KT P6SM SCT080 BKN180
     FM231900 32015KT P6SM SCT080 BKN150
     FM232200 35017G24KT P6SM VCSH SCT070 BKN140
     FM240200 34011KT P6SM SCT140 BKN200
     FM240800 25006KT P6SM FEW200=



000
FTUS45 KBOU 231134
TAFAPA
TAF
KAPA 231134Z 2312/2412 18011KT P6SM SCT220
     FM231400 22011KT P6SM SCT110 SCT140 BKN200
     FM231600 28015KT P6SM SCT080 BKN180
     FM232200 35014KT P6SM VCSH SCT070 BKN140
     FM240300 32011KT P6SM SCT140 BKN200
     FM240800 20006KT P6SM FEW200=



000
FTUS45 KBOU 231134
TAFBJC
TAF
KBJC 231134Z 2312/2412 20011KT P6SM SCT220
     FM231500 27015KT P6SM SCT080 BKN180
     FM231800 30015G25KT P6SM SCT080 BKN150
     FM240100 34010KT P6SM SCT140 BKN200
     FM240600 28010KT P6SM FEW200=



000
FTUS45 KBOU 230902 AAB
TAFDEN
TAF AMD
KDEN 230902Z 2309/2412 18014G21KT P6SM BKN220
     FM231100 21011KT P6SM BKN220
     FM231400 24013KT P6SM SCT120 BKN200
     FM231700 28015KT P6SM SCT080 BKN180
     FM232000 32015KT P6SM SCT080 BKN150
     FM232200 35012KT P6SM SCT070 OVC140
     FM240400 32007KT P6SM SCT140 BKN200
     FM240600 25006KT P6SM FEW200=



000
FTUS45 KBOU 230902 AAA
TAFAPA
TAF AMD
KAPA 230902Z 2309/2406 18011KT P6SM SCT140 BKN200
     FM231300 23011KT P6SM SCT110 SCT140 BKN200
     FM231700 28015KT P6SM SCT080 BKN180
     FM232000 32015KT P6SM SCT080 BKN150
     FM232200 35012KT P6SM SCT070 OVC140
     FM240400 32007KT P6SM SCT140 BKN200=



000
FTUS45 KBOU 230628 AAA
TAFDEN
TAF AMD
KDEN 230628Z 2306/2412 19014G21KT P6SM SCT220
     FM231100 23011KT P6SM SCT220
     FM231700 28015KT P6SM SCT080 BKN180
     FM232000 32015KT P6SM SCT080 BKN150
     FM232200 35012KT P6SM SCT070 OVC140
     FM240400 32007KT P6SM SCT140 BKN200
     FM240600 25006KT P6SM FEW200=



000
FTUS45 KBOU 230556 AAA
TAFBJC
TAF AMD
KBJC 230556Z 2306/2406 20011KT P6SM SCT200
     FM230900 23011KT P6SM SCT200
     FM231700 28015KT P6SM SCT080 BKN180
     FM232000 32015KT P6SM SCT080 BKN150
     FM232200 35012KT P6SM SCT070 OVC140
     FM240400 32007KT P6SM SCT140 BKN200=



000
FTUS45 KBOU 230520
TAFAPA
TAF
KAPA 230520Z 2306/2406 20009KT P6SM SCT140 BKN200
     FM230900 23011KT P6SM SCT110 SCT140 BKN200
     FM231700 28015KT P6SM SCT080 BKN180
     FM232000 32015KT P6SM SCT080 BKN150
     FM232200 35012KT P6SM SCT070 OVC140
     FM240400 32007KT P6SM SCT140 BKN200=



000
FTUS45 KBOU 230520
TAFBJC
TAF
KBJC 230520Z 2306/2406 25005KT P6SM FEW070 SCT120 BKN220
     FM230900 23011KT P6SM SCT100 BKN120 BKN200
     FM231700 28015KT P6SM SCT080 BKN180
     FM232000 32015KT P6SM SCT080 BKN150
     FM232200 35012KT P6SM SCT070 OVC140
     FM240400 32007KT P6SM SCT140 BKN200=



000
FTUS45 KBOU 230520
TAFAPA
TAF
KAPA 230520Z 2306/2406 17010KT P6SM SCT140 BKN200
     FM230900 23011KT P6SM SCT110 SCT140 BKN200
     FM231700 28015KT P6SM SCT080 BKN180
     FM232000 32015KT P6SM SCT080 BKN150
     FM232200 35012KT P6SM SCT070 OVC140
     FM240400 32007KT P6SM SCT140 BKN200=



000
FTUS45 KBOU 230520
TAFBJC
TAF
KBJC 230520Z 2306/2406 22005KT P6SM FEW070 SCT120 BKN220
     FM230900 23011KT P6SM SCT100 BKN120 BKN200
     FM231700 28015KT P6SM SCT080 BKN180
     FM232000 32015KT P6SM SCT080 BKN150
     FM232200 35012KT P6SM SCT070 OVC140
     FM240400 32007KT P6SM SCT140 BKN200=



000
FTUS45 KBOU 230520
TAFDEN
TAF
KDEN 230520Z 2306/2412 20013KT P6SM SCT150 OVC220
     FM230900 23011KT P6SM SCT110 SCT150 BKN200
     FM231700 28015KT P6SM SCT080 BKN180
     FM232000 32015KT P6SM SCT080 BKN150
     FM232200 35012KT P6SM SCT070 OVC140
     FM240400 32007KT P6SM SCT140 BKN200
     FM240600 25006KT P6SM FEW200=



000
FTUS45 KBOU 230300 AAA
TAFBJC
TAF AMD
KBJC 230300Z 2303/2324 22007KT P6SM FEW070 BKN120 BKN220
     FM230500 25008KT P6SM SCT120 BKN220
     FM231700 29015KT P6SM SCT080 BKN180
     FM232200 01010KT P6SM SCT070 OVC140=



000
FTUS45 KBOU 230259 AAC
TAFDEN
TAF AMD
KDEN 230259Z 2303/2406 18012KT P6SM FEW100 BKN150 BKN220
     FM230500 21013KT P6SM SCT150 BKN220
     FM230900 23010KT P6SM SCT100 BKN220
     FM231700 28015KT P6SM SCT080 BKN180
     FM232200 36012KT P6SM SCT070 OVC140=



000
FTUS45 KBOU 230125 AAB
TAFDEN
TAF AMD
KDEN 230125Z 2301/2406 VRB06KT P6SM SCT090 BKN150 BKN220
     FM230300 22013KT P6SM SCT120 BKN220
     FM230900 23010KT P6SM SCT100 BKN220
     FM231700 28015KT P6SM SCT080 BKN180
     FM232200 36012KT P6SM SCT070 OVC140=



000
FTUS45 KBOU 230027 AAA
TAFAPA
TAF AMD
KAPA 230027Z 2300/2324 24010KT P6SM FEW090 BKN160 BKN220
     FM230200 20013KT P6SM SCT120 BKN220
     FM230900 22010KT P6SM SCT100 BKN220
     FM231700 29014KT P6SM SCT080 BKN180
     FM232200 01012KT P6SM SCT070 OVC140=



000
FTUS45 KBOU 230026 AAA
TAFDEN
TAF AMD
KDEN 230026Z 2300/2406 28008KT P6SM SCT090 BKN150 BKN220
     FM230200 22013KT P6SM SCT120 BKN220
     FM230900 23010KT P6SM SCT100 BKN220
     FM231700 28015KT P6SM SCT080 BKN180
     FM232200 36012KT P6SM SCT070 OVC140=



000
FTUS45 KBOU 222335
TAFAPA
TAF
KAPA 222335Z 2300/2324 23013G27KT P6SM SCT100 BKN140 BKN220
     FM230200 20013KT P6SM SCT120 BKN220
     FM230900 22010KT P6SM SCT100 BKN220
     FM231700 29014KT P6SM SCT080 BKN180
     FM232200 01012KT P6SM SCT070 OVC140=



000
FTUS45 KBOU 222335
TAFDEN
TAF
KDEN 222335Z 2300/2406 25010G22KT P6SM SCT100 BKN140 BKN220
     FM230200 22013KT P6SM SCT120 BKN220
     FM230900 23010KT P6SM SCT100 BKN220
     FM231700 28015KT P6SM SCT080 BKN180
     FM232200 36012KT P6SM SCT070 OVC140=



000
FTUS45 KBOU 222335
TAFBJC
TAF
KBJC 222335Z 2300/2324 27012KT P6SM SCT070 BKN100 BKN200
     FM230200 25013KT P6SM SCT120 BKN220
     FM231700 29015KT P6SM SCT080 BKN180
     FM232200 01010KT P6SM SCT070 OVC140=



000
FTUS45 KBOU 222202 AAB
TAFDEN
TAF AMD
KDEN 222202Z 2222/2324 22012KT P6SM VCSH BKN100 BKN120 BKN200
      TEMPO 2222/2301 VRB16G38KT BKN080
     FM230100 22013KT P6SM SCT130 BKN220
     FM231400 24014KT P6SM SCT130 BKN220
     FM231700 30015KT P6SM SCT080 BKN150
     FM232000 34015KT P6SM SCT070 BKN130=



000
FTUS45 KBOU 222102 AAA
TAFDEN
TAF AMD
KDEN 222102Z 2221/2324 26010G20KT P6SM VCSH SCT100 BKN120 BKN200
      TEMPO 2221/2301 VRB15G35KT SCT080 BKN120
     FM230100 22013KT P6SM SCT130 BKN220
     FM231400 24014KT P6SM SCT130 BKN220
     FM231700 30015KT P6SM SCT080 BKN150
     FM232000 34015KT P6SM SCT070 BKN130=



000
FTUS45 KBOU 222102 AAA
TAFAPA
TAF AMD
KAPA 222102Z 2221/2318 26010G20KT P6SM VCSH SCT100 BKN140 BKN200
      TEMPO 2221/2301 VRB15G35KT SCT080 BKN120
     FM230100 19013KT P6SM SCT120 BKN220
     FM231300 22014KT P6SM SCT130 BKN220
     FM231700 30014KT P6SM SCT080 BKN150=



000
FTUS45 KBOU 221900 AAA
TAFBJC
TAF AMD
KBJC 221900Z 2219/2318 15010KT P6SM FEW090 SCT130
      TEMPO 2220/2224 23013G22KT BKN090
     FM230100 25014KT P6SM SCT110 BKN220
     FM231600 29016KT P6SM SCT080 BKN150=



000
FTUS45 KBOU 221739
TAFAPA
TAF
KAPA 221739Z 2218/2318 22013KT P6SM FEW140 BKN240
     FM222000 22015G26KT P6SM VCTS SCT090CB BKN140
      TEMPO 2221/2301 BKN080CB
     FM230100 19013KT P6SM SCT120 BKN220
     FM231300 22014KT P6SM SCT130 BKN220
     FM231700 30014KT P6SM SCT080 BKN150=



000
FTUS45 KBOU 221739
TAFDEN
TAF
KDEN 221739Z 2218/2324 20012KT P6SM FEW120 BKN240
     FM222000 21015G25KT P6SM FEW090 SCT130 BKN220
      TEMPO 2221/2301 SCT080 BKN120
     FM230100 22013KT P6SM SCT130 BKN220
     FM231400 24014KT P6SM SCT130 BKN220
     FM231700 30015KT P6SM SCT080 BKN150
     FM232000 34015KT P6SM SCT070 BKN130=



000
FTUS45 KBOU 221739
TAFBJC
TAF
KBJC 221739Z 2218/2318 29006KT P6SM SCT240
     FM221900 19010KT P6SM FEW090 SCT130
      TEMPO 2220/2224 23013G22KT BKN090
     FM230100 25014KT P6SM SCT110 BKN220
     FM231600 29016KT P6SM SCT080 BKN150=



000
FTUS45 KBOU 221649 AAA
TAFAPA
TAF AMD
KAPA 221649Z 2217/2312 22012KT P6SM FEW140 BKN240
     FM222100 22015G26KT P6SM VCSH SCT090 BKN140
      TEMPO 2221/2301 BKN090
     FM230100 18014KT P6SM SCT120 BKN200=



000
FTUS45 KBOU 221459 AAB
TAFDEN
TAF AMD
KDEN 221459Z 2215/2318 23014KT P6SM FEW120 BKN240
     FM222000 22015G25KT P6SM FEW090 SCT130 BKN220
      TEMPO 2222/2301 SCT080 BKN120
     FM230100 21014KT P6SM SCT130 BKN200=



000
FTUS45 KBOU 221312 AAA
TAFDEN
TAF AMD
KDEN 221312Z 2213/2318 24007KT P6SM FEW120 SCT240
     FM221700 23014KT P6SM FEW130 BKN240
     FM222000 22016G27KT P6SM FEW090 SCT130 BKN220
      TEMPO 2222/2301 SCT090 BKN120
     FM230100 21014KT P6SM SCT130 BKN200=



000
FTUS45 KBOU 221139
TAFBJC
TAF
KBJC 221139Z 2212/2312 VRB04KT P6SM SCT240
     FM221700 18011KT P6SM FEW090 SCT130
      TEMPO 2220/2224 23013G22KT BKN090
     FM230100 26014KT P6SM SCT110 BKN200=



000
FTUS45 KBOU 221139
TAFDEN
TAF
KDEN 221139Z 2212/2318 21010KT P6SM SCT240
     FM221700 23014KT P6SM FEW140 BKN240
     FM222000 24016G27KT P6SM FEW090 SCT130 BKN220
      TEMPO 2222/2301 SCT090 BKN120
     FM230100 21014KT P6SM SCT130 BKN200=



000
FTUS45 KBOU 221139
TAFAPA
TAF
KAPA 221139Z 2212/2312 16010KT P6SM SCT240
     FM221600 19012KT P6SM FEW140 BKN240
     FM222100 22015G26KT P6SM VCSH SCT090 BKN140
      TEMPO 2221/2301 BKN090
     FM230100 18014KT P6SM SCT120 BKN200=



000
FTUS45 KBOU 221042 AAC
TAFDEN
TAF AMD
KDEN 221042Z 2211/2312 18009KT P6SM SCT250
     FM221400 21013KT P6SM FEW140 SCT240
     FM222000 24016G28KT P6SM FEW090 SCT140 BKN220
      TEMPO 2222/2301 SCT090 BKN120
     FM230100 21014KT P6SM SCT130 BKN200=



000
FTUS45 KBOU 220908 AAA
TAFAPA
TAF AMD
KAPA 220908Z 2209/2306 16013KT P6SM FEW130 SCT250
     FM221100 19010KT P6SM FEW120 BKN240
     FM222000 22015G26KT P6SM FEW090 SCT120
      TEMPO 2221/2301 SCT080 BKN120
     FM230100 18014KT P6SM SCT110 BKN200=



000
FTUS45 KBOU 220906 AAB
TAFDEN
TAF AMD
KDEN 220906Z 2209/2312 19015G25KT P6SM FEW140 SCT250
     FM221100 21013KT P6SM FEW140 BKN240
     FM222000 23015G26KT P6SM SCT090 BKN150
      TEMPO 2221/2301 BKN090
     FM230100 20014KT P6SM SCT120 BKN200=



000
FTUS45 KBOU 220610 AAA
TAFDEN
TAF AMD
KDEN 220610Z 2206/2312 19018G28KT P6SM FEW140 BKN250
     FM221100 21014KT P6SM FEW130 BKN220
     FM222000 23015G26KT P6SM SCT090 BKN150
      TEMPO 2221/2301 BKN090
     FM230100 20014KT P6SM SCT120 BKN200=



000
FTUS45 KBOU 220539
TAFAPA
TAF
KAPA 220539Z 2206/2306 18013G22KT P6SM FEW130 BKN250
     FM221100 19012KT P6SM SCT120 BKN220
     FM222000 22015G27KT P6SM SCT080 BKN130
      TEMPO 2221/2301 BKN080
     FM230100 18014KT P6SM SCT110 BKN200=



000
FTUS45 KBOU 220539
TAFBJC
TAF
KBJC 220539Z 2206/2306 18007KT P6SM FEW120 BKN250
     FM221800 24012KT P6SM SCT080 BKN130
      TEMPO 2220/2224 23013G24KT BKN080
     FM230100 20012KT P6SM SCT090 BKN200=



000
FTUS45 KBOU 220539
TAFDEN
TAF
KDEN 220539Z 2206/2312 19013G24KT P6SM FEW140 BKN250
     FM221100 21011KT P6SM SCT130 BKN220
     FM222000 23015G25KT P6SM SCT090 BKN150
      TEMPO 2221/2301 BKN090
     FM230100 21013KT P6SM SCT120 BKN200=



000
FTUS45 KBOU 220315 AAA
TAFBJC
TAF AMD
KBJC 220315Z 2203/2224 24007KT P6SM FEW120 BKN220
     FM221800 24012KT P6SM SCT080 BKN120
      TEMPO 2220/2224 24016G26KT BKN080=



000
FTUS45 KBOU 220315 AAA
TAFAPA
TAF AMD
KAPA 220315Z 2203/2224 19012G20KT P6SM FEW120 BKN250
     FM221200 19012KT P6SM SCT120 BKN220
     FM222000 21014G24KT P6SM SCT080 BKN120
      TEMPO 2220/2224 BKN080=



000
FTUS45 KBOU 220310 AAA
TAFDEN
TAF AMD
KDEN 220310Z 2203/2306 19012G20KT P6SM FEW140 BKN250
     FM221200 21010KT P6SM SCT120 BKN220
     FM222000 23014G22KT P6SM SCT080 BKN120
      TEMPO 2220/2224 BKN080=



000
FTUS45 KBOU 212343
TAFBJC
TAF
KBJC 212343Z 2200/2224 11009KT P6SM SCT070 BKN120
     FM220200 17007KT P6SM FEW120 SCT220
     FM220700 24008KT P6SM FEW120 SCT220
     FM221200 24007KT P6SM SCT120 BKN220
     FM221800 24012KT P6SM SCT080 BKN120
      TEMPO 2220/2224 24016G26KT BKN080=



000
FTUS45 KBOU 212337
TAFAPA
TAF
KAPA 212337Z 2200/2224 15012G20KT P6SM FEW090 SCT120 BKN220
     FM220030 27014G22KT P6SM VCSH SCT090 BKN120
     FM220200 16014G22KT P6SM FEW120 SCT220
     FM221200 19012KT P6SM SCT120 BKN220
     FM222000 21014G24KT P6SM SCT080 BKN120
      TEMPO 2220/2224 BKN080=



000
FTUS45 KBOU 212337
TAFDEN
TAF
KDEN 212337Z 2200/2306 15014G22KT P6SM FEW090 SCT120 BKN220
     FM220030 27014G22KT P6SM VCSH SCT090 BKN120
     FM220200 17012G20KT P6SM FEW120 SCT220
     FM221200 21010KT P6SM SCT120 BKN220
     FM222000 23014G22KT P6SM SCT080 BKN120
      TEMPO 2220/2224 BKN080=



000
FTUS45 KBOU 212310 AAB
TAFBJC
TAF AMD
KBJC 212310Z 2123/2218 31011KT P6SM VCSH SCT070 BKN120
     FM220000 11009KT P6SM SCT070 BKN120
     FM220200 17007KT P6SM FEW120 SCT220
     FM220700 24008KT P6SM FEW120 SCT220
     FM221400 22008KT P6SM SCT120 BKN220=



000
FTUS45 KBOU 212106 AAA
TAFBJC
TAF AMD
KBJC 212106Z 2121/2218 11009KT P6SM SCT080 BKN120
     FM220200 17007KT P6SM FEW120 SCT220
     FM220700 24008KT P6SM FEW120 SCT220
     FM221400 22008KT P6SM SCT120 BKN220=



000
FTUS45 KBOU 212106 AAB
TAFDEN
TAF AMD
KDEN 212106Z 2121/2224 15014G22KT P6SM FEW090 SCT120 BKN220
     FM220700 19012KT P6SM FEW220
     FM221500 21008KT P6SM SCT120 BKN220
     FM221900 24008KT P6SM SCT080 BKN120
      TEMPO 2220/2224 BKN070=



000
FTUS45 KBOU 212106 AAA
TAFAPA
TAF AMD
KAPA 212106Z 2121/2218 17008KT P6SM BKN090 BKN150
      TEMPO 2121/2122 -SHRA
     FM212200 13012KT P6SM SCT090 BKN120
     FM220200 16014G22KT P6SM FEW120 SCT220
     FM221000 18008KT P6SM FEW120 SCT220
     FM221500 20007KT P6SM SCT120 BKN220=



000
FTUS45 KBOU 211902 AAA
TAFDEN
TAF AMD
KDEN 211902Z 2119/2224 12012KT P6SM FEW140 SCT220
     FM212000 14012G18KT P6SM FEW080 SCT140 BKN220
     FM220100 16014KT P6SM FEW120 SCT220
     FM220700 19012KT P6SM FEW220
     FM221500 21008KT P6SM SCT120 BKN220
     FM221900 24008KT P6SM SCT080 BKN120
      TEMPO 2220/2224 BKN070=



000
FTUS45 KBOU 211730
TAFBJC
TAF
KBJC 211730Z 2118/2218 10006KT P6SM FEW110 SCT200
     FM212200 14010KT P6SM VCTS SCT080CB BKN120
     FM220200 17007KT P6SM FEW120 SCT220
     FM220700 24008KT P6SM FEW120 SCT220
     FM221400 22008KT P6SM SCT120 BKN220=



000
FTUS45 KBOU 211730
TAFAPA
TAF
KAPA 211730Z 2118/2218 11008KT P6SM FEW140 SCT220
     FM212200 13012KT P6SM VCTS SCT080CB BKN140
     FM220200 16016KT P6SM FEW120 SCT220
     FM221000 18008KT P6SM FEW120 SCT220
     FM221500 20007KT P6SM SCT120 BKN220=



000
FTUS45 KBOU 211730
TAFDEN
TAF
KDEN 211730Z 2118/2224 11008KT P6SM FEW140 SCT220
     FM212000 13012KT P6SM FEW080 SCT140 BKN220
     FM220100 16014KT P6SM FEW120 SCT220
     FM220700 19012KT P6SM FEW220
     FM221500 21008KT P6SM SCT120 BKN220
     FM221900 24008KT P6SM SCT080 BKN120
      TEMPO 2220/2224 BKN070=



000
FTUS45 KBOU 211612 AAB
TAFDEN
TAF AMD
KDEN 211612Z 2116/2218 07007KT P6SM FEW140 SCT220
     FM211800 10008KT P6SM FEW140 SCT220
     FM212000 13012KT P6SM FEW080 SCT140 BKN220
     FM220100 16015KT P6SM FEW120 SCT220
     FM220700 19013KT P6SM FEW220
     FM221500 23008KT P6SM SCT120 SCT220=



000
FTUS45 KBOU 211503 AAA
TAFAPA
TAF AMD
KAPA 211503Z 2115/2212 04008KT P6SM FEW120 SCT220
     FM211800 08008KT P6SM FEW140 SCT220
     FM212200 13012KT P6SM VCSH SCT080 BKN140
     FM220200 16016KT P6SM FEW120 SCT220
     FM221000 18007KT P6SM FEW110 SCT220=



000
FTUS45 KBOU 211459 AAA
TAFDEN
TAF AMD
KDEN 211459Z 2115/2218 04008KT P6SM FEW120 SCT220
     FM211700 08008KT P6SM FEW140 SCT220
     FM212000 13012KT P6SM FEW080 SCT140 BKN220
     FM220100 16015KT P6SM FEW120 SCT220
     FM220700 19013KT P6SM FEW220
     FM221500 23008KT P6SM SCT120 SCT220=



    US Dept of Commerce
    National Oceanic and Atmospheric Administration
    National Weather Service
    1325 East West Highway
    Silver Spring, MD 20910
    Page Author: NWS Internet Services Team
Disclaimer
Information Quality
Credits
Glossary
Privacy Policy
Freedom of Information Act (FOIA)
About Us
Career Opportunities